This is the latest recevied weather packets stored in our database for station/object WA2TQI. If no packets are shown the sender has not sent any weather packets the latest 10 day(s).
| Time | Temp. | Humidity | Pressure | Rain* | Wind** | Luminosity | Snow |
|---|---|---|---|---|---|---|---|
| 1777576114 | 17.78° C | 70% | 1008.1 hPa | 0 mm | - | - | - |
| 1777575808 | 17.78° C | 71% | 1008.2 hPa | 0 mm | - | - | - |
| 1777575506 | 17.22° C | 72% | 1008.1 hPa | 0 mm | - | - | - |
| 1777575201 | 16.67° C | 74% | 1008.2 hPa | 0 mm | - | - | - |
| 1777574897 | 16.67° C | 75% | 1008.4 hPa | 0 mm | - | - | - |
| 1777574594 | 16.67° C | 75% | 1008.4 hPa | 0 mm | - | - | - |
| 1777574291 | 17.22° C | 74% | 1008.6 hPa | 0 mm | - | - | - |
| 1777573986 | 17.78° C | 72% | 1008.5 hPa | 0 mm | - | - | - |
| 1777573680 | 17.22° C | 75% | 1008.5 hPa | 0 mm | - | - | - |
| 1777573378 | 16.67° C | 76% | 1008.4 hPa | 0 mm | - | - | - |
| 1777573073 | 17.22° C | 75% | 1008.4 hPa | 0 mm | - | - | - |
| 1777572770 | 16.67° C | 77% | 1008.4 hPa | 0 mm | - | - | - |
| 1777572465 | 17.22° C | 77% | 1008.3 hPa | 0 mm | - | - | - |
| 1777572161 | 17.22° C | 78% | 1008.4 hPa | 0 mm | - | - | - |
| 1777571856 | 17.22° C | 78% | 1008.5 hPa | 0 mm | - | - | - |
| 1777571552 | 16.11° C | 80% | 1008.6 hPa | 0 mm | - | - | - |
| 1777571249 | 16.11° C | 82% | 1008.6 hPa | 0 mm | - | - | - |
| 1777570946 | 16.67° C | 80% | 1008.5 hPa | 0 mm | - | - | - |
| 1777570641 | 16.67° C | 81% | 1008.7 hPa | 0 mm | - | - | - |
| 1777570339 | 16.67° C | 82% | 1008.9 hPa | 0 mm | - | - | - |
| 1777570034 | 16.11° C | 85% | 1008.5 hPa | 0 mm | - | - | - |
| 1777569730 | 15.56° C | 84% | 1008.9 hPa | 0 mm | - | - | - |
| 1777569425 | 15° C | 87% | 1008.8 hPa | 0 mm | - | - | - |
| 1777569123 | 14.44° C | 89% | 1009 hPa | 0 mm | - | - | - |
| 1777568820 | 14.44° C | 89% | 1009.2 hPa | 0 mm | - | - | - |
* Rain latest hour (hover to see other rain measurements)
** Current wind speed in m/s (hover to see current wind gust speed)